createdAt,value
2018-09-15T00:00:25.224Z,62.40
2018-09-15T00:02:29.558Z,62.30
2018-09-15T00:04:34.224Z,62.30
2018-09-15T00:06:38.234Z,62.60
2018-09-15T00:08:42.550Z,62.10
2018-09-15T00:10:47.287Z,61.80
2018-09-15T00:12:51.337Z,62.00
2018-09-15T00:14:57.177Z,62.00
2018-09-15T00:17:01.194Z,62.00
2018-09-15T00:19:06.544Z,62.00
2018-09-15T00:21:11.489Z,62.20
2018-09-15T00:23:16.319Z,62.30
2018-09-15T00:25:20.503Z,62.40
2018-09-15T00:27:24.954Z,62.40
2018-09-15T00:29:29.079Z,62.70
2018-09-15T00:31:33.187Z,62.80
2018-09-15T00:33:37.249Z,62.80
2018-09-15T00:35:41.235Z,62.80
2018-09-15T00:37:45.264Z,62.50
2018-09-15T00:39:49.623Z,62.80
2018-09-15T00:41:53.783Z,62.40
2018-09-15T00:43:57.800Z,62.60
2018-09-15T00:46:01.781Z,62.60
2018-09-15T00:48:06.668Z,62.60
2018-09-15T00:50:10.632Z,62.60
2018-09-15T00:52:14.929Z,62.60
2018-09-15T00:54:18.957Z,62.50
2018-09-15T00:56:23.133Z,63.00
2018-09-15T00:58:28.474Z,63.80
2018-09-15T01:00:33.170Z,64.40
2018-09-15T01:02:37.396Z,64.90
2018-09-15T01:04:43.089Z,64.40
2018-09-15T01:06:47.066Z,64.40
2018-09-15T01:08:51.113Z,64.90
2018-09-15T01:10:56.444Z,64.80
2018-09-15T01:13:02.378Z,64.80
2018-09-15T01:15:06.432Z,64.70
2018-09-15T01:17:11.696Z,64.60
2018-09-15T01:19:15.684Z,64.90
2018-09-15T01:21:19.713Z,65.10
2018-09-15T01:23:25.318Z,65.20
2018-09-15T01:27:42.460Z,65.80
2018-09-15T01:29:46.464Z,65.90
2018-09-15T01:31:50.440Z,66.20
2018-09-15T01:33:55.065Z,66.70
2018-09-15T01:36:00.949Z,67.30
2018-09-15T01:38:04.936Z,68.20
2018-09-15T01:40:09.002Z,68.80
2018-09-15T01:42:14.008Z,70.20
2018-09-15T01:44:19.025Z,70.20
2018-09-15T01:46:23.025Z,69.80
2018-09-15T01:48:28.345Z,68.80
2018-09-15T01:50:33.089Z,68.40
2018-09-15T01:52:38.609Z,69.00
2018-09-15T01:54:44.260Z,70.60
2018-09-15T01:56:50.290Z,71.20
2018-09-15T01:58:55.824Z,70.50
2018-09-15T02:01:02.097Z,69.80
2018-09-15T02:03:07.585Z,69.80
2018-09-15T02:05:12.440Z,70.10
2018-09-15T02:07:20.665Z,69.60
2018-09-15T02:09:24.692Z,70.50
2018-09-15T02:11:28.756Z,69.70
2018-09-15T02:13:34.260Z,69.60
2018-09-15T02:15:38.242Z,70.40
2018-09-15T02:17:42.205Z,69.80
2018-09-15T02:19:46.556Z,69.70
2018-09-15T02:21:50.584Z,70.00
2018-09-15T02:23:55.782Z,70.60
2018-09-15T02:26:00.748Z,70.30
2018-09-15T02:28:06.188Z,69.80
2018-09-15T02:30:13.376Z,69.40
2018-09-15T02:32:18.832Z,69.20
2018-09-15T02:34:25.641Z,69.30
2018-09-15T02:36:30.646Z,69.20
2018-09-15T02:38:36.470Z,68.90
2018-09-15T02:40:41.015Z,69.00
2018-09-15T02:42:48.053Z,69.30
2018-09-15T02:44:55.418Z,69.20
2018-09-15T02:47:02.184Z,69.30
2018-09-15T02:49:06.204Z,69.30
2018-09-15T02:51:10.517Z,69.70
2018-09-15T02:53:14.469Z,69.70
2018-09-15T02:55:19.689Z,69.70
2018-09-15T02:57:28.550Z,69.80
2018-09-15T02:59:34.380Z,70.10
2018-09-15T03:01:40.218Z,70.50
2018-09-15T03:03:46.308Z,70.60
2018-09-15T03:05:50.392Z,70.50
2018-09-15T03:07:57.779Z,70.60
2018-09-15T03:10:01.742Z,70.50
2018-09-15T03:12:05.865Z,71.50
2018-09-15T03:14:12.772Z,70.80
2018-09-15T03:16:17.557Z,70.60
2018-09-15T03:18:22.561Z,70.60
2018-09-15T03:20:27.610Z,70.50
2018-09-15T03:22:32.517Z,70.50
2018-09-15T03:24:36.772Z,70.40
2018-09-15T03:26:41.970Z,70.40
2018-09-15T03:28:46.329Z,70.10
2018-09-15T03:30:51.335Z,70.30
2018-09-15T03:32:55.700Z,70.20
2018-09-15T03:35:01.502Z,70.90
2018-09-15T03:37:05.784Z,70.10
2018-09-15T03:39:12.203Z,70.30
2018-09-15T03:41:17.401Z,70.40
2018-09-15T03:43:21.329Z,70.40
2018-09-15T03:45:32.179Z,70.40
2018-09-15T03:47:36.150Z,70.90
2018-09-15T03:49:40.539Z,70.90
2018-09-15T03:51:48.126Z,71.00
2018-09-15T03:53:52.747Z,71.70
2018-09-15T03:55:57.556Z,72.00
2018-09-15T03:58:03.720Z,72.20
2018-09-15T04:00:07.773Z,73.00
2018-09-15T04:02:12.394Z,72.80
2018-09-15T04:04:17.348Z,73.00
2018-09-15T04:06:22.258Z,73.00
2018-09-15T04:08:26.196Z,73.10
2018-09-15T04:10:30.193Z,73.30
2018-09-15T04:12:35.438Z,73.70
2018-09-15T04:14:39.418Z,73.60
2018-09-15T04:16:46.299Z,73.80
2018-09-15T04:18:51.244Z,73.90
2018-09-15T04:20:55.835Z,74.20
2018-09-15T04:23:01.049Z,74.70
2018-09-15T04:25:05.076Z,74.80
2018-09-15T04:27:09.481Z,74.70
2018-09-15T04:29:14.017Z,74.70
2018-09-15T04:31:18.026Z,74.60
2018-09-15T04:33:22.550Z,74.80
2018-09-15T04:35:33.431Z,75.40
2018-09-15T04:37:38.520Z,76.10
2018-09-15T04:39:42.463Z,76.70
2018-09-15T04:41:47.634Z,76.90
2018-09-15T04:43:51.617Z,76.80
2018-09-15T04:45:56.196Z,76.90
2018-09-15T04:48:01.155Z,77.00
2018-09-15T04:50:05.313Z,77.40
2018-09-15T04:52:13.417Z,77.50
2018-09-15T04:54:17.668Z,77.40
2018-09-15T04:56:22.618Z,77.60
2018-09-15T04:58:26.671Z,77.60
2018-09-15T05:00:32.991Z,77.80
2018-09-15T05:02:38.066Z,78.10
2018-09-15T05:04:43.459Z,78.40
2018-09-15T05:06:52.461Z,78.70
2018-09-15T05:08:57.953Z,78.60
2018-09-15T05:11:01.973Z,79.00
2018-09-15T05:13:06.221Z,78.90
2018-09-15T05:15:13.339Z,78.40
2018-09-15T05:17:17.376Z,78.20
2018-09-15T05:19:22.061Z,78.30
2018-09-15T05:21:28.855Z,78.30
2018-09-15T05:23:33.099Z,78.20
2018-09-15T05:25:37.365Z,77.80
2018-09-15T05:27:41.288Z,77.80
2018-09-15T05:29:45.334Z,77.90
2018-09-15T05:31:53.688Z,77.60
2018-09-15T05:33:57.738Z,77.40
2018-09-15T05:36:01.681Z,76.90
2018-09-15T05:38:06.148Z,76.60
2018-09-15T05:40:10.222Z,76.20
2018-09-15T05:42:14.259Z,75.70
2018-09-15T05:44:22.625Z,75.80
2018-09-15T05:46:26.555Z,75.60
2018-09-15T05:48:31.218Z,75.10
2018-09-15T05:50:35.492Z,74.60
2018-09-15T05:52:42.228Z,74.00
2018-09-15T05:54:46.289Z,73.50
2018-09-15T05:56:50.853Z,73.00
2018-09-15T05:58:54.900Z,72.60
2018-09-15T06:00:59.604Z,72.20
2018-09-15T06:03:03.601Z,71.70
2018-09-15T06:05:07.889Z,70.90
2018-09-15T06:07:11.898Z,70.00
2018-09-15T06:09:16.208Z,69.30
2018-09-15T06:11:20.200Z,69.70
2018-09-15T06:13:30.678Z,68.80
2018-09-15T06:15:34.696Z,68.60
2018-09-15T06:17:38.767Z,68.20
2018-09-15T06:19:42.846Z,68.40
2018-09-15T06:21:47.221Z,69.50
2018-09-15T06:23:52.283Z,69.20
2018-09-15T06:25:56.441Z,69.40
2018-09-15T06:28:03.009Z,69.60
2018-09-15T06:30:07.873Z,69.80
2018-09-15T06:32:13.641Z,69.80
2018-09-15T06:34:21.716Z,69.80
2018-09-15T06:38:35.918Z,70.50
2018-09-15T06:40:40.841Z,69.90
2018-09-15T06:42:44.884Z,70.30
2018-09-15T06:44:48.933Z,70.40
2018-09-15T06:46:53.233Z,70.60
2018-09-15T06:49:00.930Z,70.40
2018-09-15T06:51:07.364Z,71.70
2018-09-15T06:53:13.951Z,71.30
2018-09-15T06:55:17.907Z,70.10
2018-09-15T06:57:21.946Z,70.00
2018-09-15T06:59:29.604Z,68.80
2018-09-15T07:01:34.810Z,67.10
2018-09-15T07:03:40.395Z,66.60
2018-09-15T07:05:50.233Z,66.40
2018-09-15T07:07:54.233Z,66.50
2018-09-15T07:10:02.350Z,65.90
2018-09-15T07:12:06.732Z,66.00
2018-09-15T07:14:11.969Z,65.10
2018-09-15T07:16:16.886Z,64.90
2018-09-15T07:18:21.297Z,64.20
2018-09-15T07:20:25.274Z,65.00
2018-09-15T07:22:30.017Z,64.70
2018-09-15T07:24:34.243Z,64.50
2018-09-15T07:26:38.294Z,62.60
2018-09-15T07:28:42.224Z,61.60
2018-09-15T07:30:47.237Z,61.40
2018-09-15T07:32:52.469Z,60.80
2018-09-15T07:34:56.588Z,60.50
2018-09-15T07:37:00.718Z,59.60
2018-09-15T07:39:08.413Z,58.30
2018-09-15T07:41:13.432Z,57.40
2018-09-15T07:43:23.730Z,56.90
2018-09-15T07:45:29.025Z,56.30
2018-09-15T07:47:33.613Z,55.30
2018-09-15T07:49:40.155Z,54.80
2018-09-15T07:51:44.365Z,54.20
2018-09-15T07:56:18.366Z,54.40
2018-09-15T07:58:31.870Z,55.30
2018-09-15T08:00:47.076Z,55.30
2018-09-15T08:02:53.041Z,54.60
2018-09-15T08:04:58.242Z,54.00
2018-09-15T08:07:04.060Z,53.30
2018-09-15T08:09:09.369Z,53.60
2018-09-15T08:11:14.378Z,52.70
2018-09-15T08:13:20.788Z,52.30
2018-09-15T08:15:28.462Z,54.10
2018-09-15T08:17:32.405Z,55.70
2018-09-15T08:19:39.344Z,56.90
2018-09-15T08:21:43.345Z,54.40
2018-09-15T08:23:48.854Z,52.30
2018-09-15T08:25:54.177Z,50.90
2018-09-15T08:27:59.709Z,49.10
2018-09-15T08:30:03.891Z,48.70
2018-09-15T08:32:09.336Z,49.60
2018-09-15T08:34:14.486Z,48.50
2018-09-15T08:36:19.511Z,49.20
2018-09-15T08:38:25.190Z,49.00
2018-09-15T08:40:29.309Z,49.20
2018-09-15T08:42:34.348Z,48.10
2018-09-15T08:44:41.743Z,46.50
2018-09-15T08:46:45.756Z,45.90
2018-09-15T08:48:50.964Z,45.00
2018-09-15T08:50:58.489Z,45.10
2018-09-15T08:53:04.318Z,45.20
2018-09-15T08:55:10.273Z,43.80
2018-09-15T08:57:14.243Z,44.50
2018-09-15T08:59:18.833Z,45.70
2018-09-15T09:01:23.603Z,45.20
2018-09-15T09:03:32.537Z,45.70
2018-09-15T09:05:37.440Z,45.00
2018-09-15T09:07:42.418Z,44.60
2018-09-15T09:09:46.511Z,45.30
2018-09-15T09:11:51.146Z,45.30
2018-09-15T09:13:55.121Z,43.60
2018-09-15T09:16:01.157Z,43.30
2018-09-15T09:18:06.579Z,43.20
2018-09-15T09:20:11.665Z,43.80
2018-09-15T09:22:15.627Z,44.90
2018-09-15T09:24:21.100Z,44.60
2018-09-15T09:26:26.574Z,44.60
2018-09-15T09:28:32.629Z,43.90
2018-09-15T09:30:36.827Z,44.40
2018-09-15T09:32:41.511Z,44.60
2018-09-15T09:34:45.601Z,44.00
2018-09-15T09:36:50.748Z,43.60
2018-09-15T09:38:55.653Z,43.20
2018-09-15T09:41:01.763Z,42.50
2018-09-15T09:43:06.513Z,42.50
2018-09-15T09:45:13.153Z,40.10
2018-09-15T09:47:17.182Z,39.70
2018-09-15T09:49:22.010Z,39.30
2018-09-15T09:51:26.273Z,38.90
2018-09-15T09:53:30.276Z,39.00
2018-09-15T09:55:36.942Z,39.00
2018-09-15T09:57:40.920Z,39.00
2018-09-15T09:59:44.971Z,38.50
2018-09-15T10:01:55.089Z,38.50
2018-09-15T10:04:00.856Z,38.60
2018-09-15T10:06:05.187Z,38.20
2018-09-15T10:08:09.308Z,37.50
2018-09-15T10:10:13.414Z,37.50
2018-09-15T10:12:17.436Z,38.30
2018-09-15T10:14:21.442Z,37.20
2018-09-15T10:16:25.936Z,36.70
2018-09-15T10:18:29.981Z,37.30
2018-09-15T10:20:35.892Z,38.00
2018-09-15T10:22:41.523Z,37.90
2018-09-15T10:24:46.393Z,37.10
2018-09-15T10:26:50.441Z,35.40
2018-09-15T10:28:55.791Z,35.00
2018-09-15T10:31:00.846Z,34.80
2018-09-15T10:33:08.737Z,34.40
2018-09-15T10:35:13.158Z,34.80
2018-09-15T10:37:17.792Z,35.10
2018-09-15T10:39:21.799Z,34.10
2018-09-15T10:41:26.185Z,34.20
2018-09-15T10:43:32.594Z,34.70
2018-09-15T10:45:36.577Z,34.20
2018-09-15T10:47:41.859Z,34.20
2018-09-15T10:49:46.689Z,34.00
2018-09-15T10:51:50.814Z,33.40
2018-09-15T10:53:54.804Z,33.90
2018-09-15T10:56:00.349Z,34.40
2018-09-15T10:58:05.389Z,34.00
2018-09-15T11:00:12.629Z,34.20
2018-09-15T11:02:17.429Z,34.20
2018-09-15T11:04:24.768Z,33.80
2018-09-15T11:06:35.775Z,33.10
2018-09-15T11:08:43.210Z,33.60
2018-09-15T11:10:48.250Z,34.00
2018-09-15T11:12:54.501Z,34.70
2018-09-15T11:15:01.631Z,35.60
2018-09-15T11:17:08.034Z,35.80
2018-09-15T11:19:12.462Z,35.40
2018-09-15T11:21:17.726Z,35.70
2018-09-15T11:23:21.739Z,35.90
2018-09-15T11:25:28.213Z,36.00
2018-09-15T11:27:32.510Z,35.40
2018-09-15T11:29:36.625Z,35.10
2018-09-15T11:31:44.159Z,35.40
2018-09-15T11:33:49.494Z,35.00
2018-09-15T11:35:54.233Z,35.00
2018-09-15T11:37:59.619Z,34.60
2018-09-15T11:40:06.498Z,34.60
2018-09-15T11:42:12.520Z,34.30
2018-09-15T11:44:19.209Z,34.10
2018-09-15T11:46:23.863Z,34.30
2018-09-15T11:48:29.195Z,34.70
2018-09-15T11:50:36.816Z,35.20
2018-09-15T11:52:42.833Z,36.50
2018-09-15T11:54:48.821Z,36.30
2018-09-15T11:56:54.760Z,35.70
2018-09-15T11:59:01.868Z,35.90
2018-09-15T12:01:08.510Z,36.00
2018-09-15T12:03:15.662Z,35.70
2018-09-15T12:05:19.807Z,36.10
2018-09-15T12:07:23.837Z,37.40
2018-09-15T12:09:30.205Z,37.80
2018-09-15T12:11:34.366Z,38.10
2018-09-15T12:13:38.346Z,38.10
2018-09-15T12:15:42.809Z,38.00
2018-09-15T12:17:47.752Z,37.40
2018-09-15T12:19:51.825Z,37.20
2018-09-15T12:21:58.214Z,37.70
2018-09-15T12:24:02.346Z,38.00
2018-09-15T12:26:07.216Z,37.50
2018-09-15T12:28:13.222Z,37.20
2018-09-15T12:30:17.195Z,37.20
2018-09-15T12:32:21.217Z,36.70
2018-09-15T12:34:25.639Z,36.80
2018-09-15T12:36:32.337Z,36.90
2018-09-15T12:38:36.559Z,36.80
2018-09-15T12:40:40.913Z,36.70
2018-09-15T12:42:45.708Z,36.20
2018-09-15T12:44:50.771Z,36.50
2018-09-15T12:46:54.729Z,37.00
2018-09-15T12:48:58.987Z,36.30
2018-09-15T12:51:02.979Z,36.10
2018-09-15T12:53:08.494Z,35.60
2018-09-15T12:55:12.552Z,35.30
2018-09-15T12:57:16.480Z,35.70
2018-09-15T12:59:21.580Z,35.80
2018-09-15T13:01:26.204Z,36.00
2018-09-15T13:03:31.409Z,36.50
2018-09-15T13:05:35.715Z,36.70
2018-09-15T13:07:40.313Z,36.60
2018-09-15T13:09:45.265Z,36.60
2018-09-15T13:11:51.730Z,36.90
2018-09-15T13:13:55.842Z,36.90
2018-09-15T13:16:01.421Z,36.80
2018-09-15T13:18:06.462Z,36.80
2018-09-15T13:20:11.410Z,36.90
2018-09-15T13:22:15.421Z,36.10
2018-09-15T13:24:20.882Z,35.60
2018-09-15T13:26:25.003Z,35.20
2018-09-15T13:28:29.025Z,35.30
2018-09-15T13:30:33.621Z,35.10
2018-09-15T13:32:37.630Z,35.10
2018-09-15T13:34:45.222Z,35.40
2018-09-15T13:36:50.532Z,35.70
2018-09-15T13:38:55.547Z,35.60
2018-09-15T13:40:59.526Z,35.90
2018-09-15T13:43:03.570Z,35.50
2018-09-15T13:45:08.282Z,35.50
2018-09-15T13:47:12.319Z,35.90
2018-09-15T13:49:17.289Z,36.50
2018-09-15T13:51:22.658Z,36.80
2018-09-15T13:53:27.660Z,36.40
2018-09-15T13:55:33.388Z,37.60
2018-09-15T13:57:38.435Z,37.40
2018-09-15T13:59:44.771Z,38.30
2018-09-15T14:01:50.941Z,38.40
2018-09-15T14:03:54.968Z,38.30
2018-09-15T14:06:00.664Z,37.70
2018-09-15T14:08:06.310Z,37.60
2018-09-15T14:10:11.791Z,37.80
2018-09-15T14:12:15.735Z,37.80
2018-09-15T14:14:23.534Z,36.50
2018-09-15T14:16:34.376Z,35.90
2018-09-15T14:18:38.362Z,35.90
2018-09-15T14:20:42.770Z,35.90
2018-09-15T14:22:47.608Z,36.40
2018-09-15T14:24:52.415Z,36.50
2018-09-15T14:26:56.474Z,37.00
2018-09-15T14:29:01.383Z,36.90
2018-09-15T14:31:06.389Z,37.50
2018-09-15T14:33:12.287Z,36.10
2018-09-15T14:35:16.360Z,36.20
2018-09-15T14:37:21.468Z,36.10
2018-09-15T14:39:26.504Z,36.30
2018-09-15T14:41:32.205Z,36.50
2018-09-15T14:43:36.830Z,36.60
2018-09-15T14:45:42.436Z,36.60
2018-09-15T14:47:46.437Z,36.00
2018-09-15T14:49:50.664Z,36.00
2018-09-15T14:51:55.685Z,36.30
2018-09-15T14:54:00.664Z,36.00
2018-09-15T14:56:05.852Z,35.30
2018-09-15T14:58:12.240Z,34.40
2018-09-15T15:00:16.672Z,34.10
2018-09-15T15:02:21.963Z,33.80
2018-09-15T15:04:26.571Z,32.10
2018-09-15T15:06:31.388Z,31.10
2018-09-15T15:08:35.426Z,30.10
2018-09-15T15:10:42.732Z,29.80
2018-09-15T15:12:47.735Z,30.50
2018-09-15T15:14:52.426Z,31.90
2018-09-15T15:16:58.468Z,31.60
2018-09-15T15:21:13.236Z,30.20
2018-09-15T15:23:17.281Z,29.60
2018-09-15T15:25:22.238Z,29.70
2018-09-15T15:27:26.225Z,29.90
2018-09-15T15:29:31.341Z,29.50
2018-09-15T15:31:37.407Z,29.10
2018-09-15T15:33:42.046Z,29.50
2018-09-15T15:35:46.022Z,30.30
2018-09-15T15:37:51.386Z,30.70
2018-09-15T15:39:57.852Z,30.60
2018-09-15T15:42:07.324Z,30.40
2018-09-15T15:44:16.299Z,31.30
2018-09-15T15:46:20.908Z,31.70
2018-09-15T15:48:25.737Z,32.80
2018-09-15T15:50:32.778Z,33.40
2018-09-15T15:52:37.600Z,34.20
2018-09-15T15:54:43.123Z,34.40
2018-09-15T15:56:49.093Z,35.20
2018-09-15T15:58:54.413Z,35.30
2018-09-15T16:00:59.389Z,34.80
2018-09-15T16:03:04.314Z,34.30
2018-09-15T16:05:09.783Z,34.30
2018-09-15T16:07:15.750Z,35.00
2018-09-15T16:09:21.570Z,36.20
2018-09-15T16:11:26.209Z,37.30
2018-09-15T16:13:36.417Z,38.10
2018-09-15T16:15:40.438Z,39.00
2018-09-15T16:17:45.323Z,39.80
2018-09-15T16:19:51.234Z,40.60
2018-09-15T16:21:55.364Z,41.30
2018-09-15T16:24:04.668Z,42.10
2018-09-15T16:26:11.255Z,42.80
2018-09-15T16:28:17.364Z,42.50
2018-09-15T16:30:42.366Z,42.80
2018-09-15T16:32:46.429Z,43.10
2018-09-15T16:34:53.066Z,43.40
2018-09-15T16:36:58.154Z,43.20
2018-09-15T16:39:06.582Z,42.90
2018-09-15T16:41:15.096Z,42.80
2018-09-15T16:43:19.667Z,42.50
2018-09-15T16:45:24.938Z,42.10
2018-09-15T16:47:29.353Z,42.20
2018-09-15T16:49:33.662Z,42.10
2018-09-15T16:51:38.465Z,42.20
2018-09-15T16:53:44.105Z,42.50
2018-09-15T16:55:48.344Z,42.60
2018-09-15T16:57:52.458Z,42.60
2018-09-15T16:59:57.054Z,42.50
2018-09-15T17:02:01.413Z,43.20
2018-09-15T17:04:08.381Z,43.40
2018-09-15T17:06:12.466Z,43.40
2018-09-15T17:08:16.505Z,43.80
2018-09-15T17:10:21.060Z,44.00
2018-09-15T17:12:25.764Z,44.30
2018-09-15T17:14:30.604Z,44.10
2018-09-15T17:16:37.023Z,44.20
2018-09-15T17:18:41.153Z,44.00
2018-09-15T17:20:46.613Z,44.40
2018-09-15T17:22:51.184Z,45.00
2018-09-15T17:24:55.191Z,45.30
2018-09-15T17:26:59.609Z,45.60
2018-09-15T17:29:04.640Z,46.10
2018-09-15T17:31:08.725Z,46.30
2018-09-15T17:33:14.232Z,46.60
2018-09-15T17:35:18.613Z,46.50
2018-09-15T17:37:23.413Z,46.60
2018-09-15T17:39:28.337Z,47.00
2018-09-15T17:41:33.649Z,47.20
2018-09-15T17:43:37.700Z,47.50
2018-09-15T17:45:43.402Z,47.80
2018-09-15T17:47:49.724Z,48.20
2018-09-15T17:49:55.368Z,48.80
2018-09-15T17:51:59.378Z,49.80
2018-09-15T17:54:03.656Z,50.30
2018-09-15T17:56:07.649Z,51.40
2018-09-15T17:58:11.669Z,51.60
2018-09-15T18:00:15.725Z,51.90
2018-09-15T18:02:21.454Z,52.10
2018-09-15T18:04:25.502Z,52.00
2018-09-15T18:06:29.821Z,52.80
2018-09-15T18:08:34.740Z,53.30
2018-09-15T18:10:41.281Z,53.90
2018-09-15T18:12:46.881Z,54.90
2018-09-15T18:14:52.679Z,54.70
2018-09-15T18:17:02.582Z,55.80
2018-09-15T18:19:09.969Z,56.50
2018-09-15T18:21:14.827Z,57.20
2018-09-15T18:23:20.284Z,57.70
2018-09-15T18:25:26.484Z,58.10
2018-09-15T18:27:31.310Z,58.50
2018-09-15T18:29:37.489Z,59.60
2018-09-15T18:31:42.543Z,59.70
2018-09-15T18:33:48.506Z,60.10
2018-09-15T18:35:54.124Z,60.60
2018-09-15T18:37:58.260Z,60.20
2018-09-15T18:40:07.964Z,60.90
2018-09-15T18:42:13.296Z,61.10
2018-09-15T18:44:17.336Z,60.90
2018-09-15T18:46:23.702Z,60.40
2018-09-15T18:48:31.347Z,60.20
2018-09-15T18:50:36.214Z,60.40
2018-09-15T18:52:45.504Z,60.70
2018-09-15T18:54:50.043Z,60.70
2018-09-15T18:56:56.808Z,60.90
2018-09-15T18:59:00.867Z,60.60
2018-09-15T19:01:07.025Z,60.80
2018-09-15T19:03:15.330Z,60.70
2018-09-15T19:05:20.326Z,60.90
2018-09-15T19:07:28.081Z,61.60
2018-09-15T19:09:33.604Z,62.30
2018-09-15T19:11:41.767Z,62.20
2018-09-15T19:13:50.644Z,62.40
2018-09-15T19:15:56.453Z,62.00
2018-09-15T19:18:01.470Z,61.80
2018-09-15T19:20:06.778Z,61.70
2018-09-15T19:22:12.377Z,61.90
2018-09-15T19:24:16.383Z,62.20
2018-09-15T19:26:22.161Z,62.40
2018-09-15T19:28:27.233Z,62.80
2018-09-15T19:30:32.213Z,63.00
2018-09-15T19:32:39.739Z,63.30
2018-09-15T19:34:46.514Z,63.70
2018-09-15T19:36:52.157Z,64.70
2018-09-15T19:38:57.321Z,65.10
2018-09-15T19:41:02.624Z,65.20
2018-09-15T19:43:06.726Z,65.60
2018-09-15T19:45:12.531Z,66.00
2018-09-15T19:47:18.221Z,66.10
2018-09-15T19:49:24.001Z,66.30
2018-09-15T19:51:33.585Z,66.10
2018-09-15T19:53:37.523Z,65.80
2018-09-15T19:55:45.229Z,65.70
2018-09-15T19:57:52.978Z,66.10
2018-09-15T19:59:57.523Z,66.40
2018-09-15T20:02:03.092Z,66.20
2018-09-15T20:04:08.547Z,66.10
2018-09-15T20:06:13.488Z,66.10
2018-09-15T20:08:19.676Z,66.30
2018-09-15T20:10:23.771Z,66.40
2018-09-15T20:12:30.442Z,66.10
2018-09-15T20:14:37.549Z,65.70
2018-09-15T20:16:40.124Z,65.50
2018-09-15T20:18:47.259Z,65.50
2018-09-15T20:20:51.417Z,65.40
2018-09-15T20:22:56.171Z,65.40
2018-09-15T20:25:03.040Z,66.00
2018-09-15T20:27:11.541Z,66.20
2018-09-15T20:29:16.632Z,66.60
2018-09-15T20:31:21.537Z,68.00
2018-09-15T20:33:25.510Z,67.80
2018-09-15T20:35:29.555Z,67.90
2018-09-15T20:37:33.549Z,67.80
2018-09-15T20:39:38.912Z,68.30
2018-09-15T20:41:43.858Z,68.00
2018-09-15T20:43:51.661Z,67.70
2018-09-15T20:45:57.280Z,67.70
2018-09-15T20:48:01.378Z,67.90
2018-09-15T20:50:05.457Z,68.10
2018-09-15T20:52:12.206Z,68.50
2018-09-15T20:54:17.741Z,69.40
2018-09-15T20:56:24.216Z,70.10
2018-09-15T20:58:30.385Z,70.80
2018-09-15T21:00:35.560Z,71.30
2018-09-15T21:02:43.421Z,71.00
2018-09-15T21:04:47.711Z,70.80
2018-09-15T21:06:55.412Z,70.60
2018-09-15T21:08:59.489Z,70.70
2018-09-15T21:11:06.951Z,70.70
2018-09-15T21:13:11.911Z,70.70
2018-09-15T21:15:18.098Z,70.50
2018-09-15T21:17:24.673Z,70.30
2018-09-15T21:19:29.508Z,70.80
2018-09-15T21:21:33.493Z,71.40
2018-09-15T21:23:44.207Z,72.50
2018-09-15T21:25:49.765Z,73.50
2018-09-15T21:27:53.814Z,74.40
2018-09-15T21:29:58.494Z,74.80
2018-09-15T21:32:03.263Z,74.50
2018-09-15T21:34:08.584Z,74.40
2018-09-15T21:36:14.140Z,74.10
2018-09-15T21:38:18.763Z,73.60
2018-09-15T21:40:23.583Z,73.30
2018-09-15T21:42:28.481Z,73.10
2018-09-15T21:44:32.530Z,72.50
2018-09-15T21:46:38.405Z,72.30
2018-09-15T21:48:42.781Z,72.70
2018-09-15T21:50:49.270Z,72.40
2018-09-15T21:52:54.521Z,72.30
2018-09-15T21:55:04.662Z,72.20
2018-09-15T21:57:09.070Z,72.60
2018-09-15T21:59:13.053Z,72.80
2018-09-15T22:01:19.169Z,73.00
2018-09-15T22:03:23.759Z,73.40
2018-09-15T22:05:28.787Z,73.30
2018-09-15T22:07:37.139Z,73.80
2018-09-15T22:09:42.017Z,73.80
2018-09-15T22:11:46.964Z,74.20
2018-09-15T22:13:52.810Z,74.60
2018-09-15T22:15:58.111Z,74.50
2018-09-15T22:18:03.234Z,74.50
2018-09-15T22:20:08.284Z,75.00
2018-09-15T22:22:13.509Z,75.10
2018-09-15T22:24:19.544Z,75.90
2018-09-15T22:26:23.578Z,76.10
2018-09-15T22:28:30.340Z,76.50
2018-09-15T22:30:35.093Z,77.30
2018-09-15T22:32:41.510Z,77.70
2018-09-15T22:34:48.081Z,77.60
2018-09-15T22:36:53.460Z,77.20
2018-09-15T22:38:58.522Z,77.00
2018-09-15T22:41:03.230Z,76.70
2018-09-15T22:43:07.945Z,76.30
2018-09-15T22:45:14.349Z,76.90
2018-09-15T22:47:19.750Z,77.70
2018-09-15T22:49:24.682Z,77.60
2018-09-15T22:51:29.933Z,77.80
2018-09-15T22:53:36.648Z,78.10
2018-09-15T22:55:41.458Z,78.00
2018-09-15T22:57:47.804Z,77.60
2018-09-15T22:59:51.796Z,77.80
2018-09-15T23:01:55.810Z,78.40
2018-09-15T23:04:05.345Z,79.20
2018-09-15T23:06:09.928Z,80.20
2018-09-15T23:08:14.572Z,80.30
2018-09-15T23:10:19.169Z,81.00
2018-09-15T23:12:23.193Z,81.30
2018-09-15T23:14:27.812Z,81.30
2018-09-15T23:16:35.802Z,81.00
2018-09-15T23:18:41.614Z,81.70
2018-09-15T23:20:46.372Z,81.20
2018-09-15T23:22:52.334Z,81.70
2018-09-15T23:24:57.386Z,82.40
2018-09-15T23:27:01.393Z,82.80
2018-09-15T23:29:06.725Z,82.80
2018-09-15T23:31:10.688Z,82.90
2018-09-15T23:33:14.715Z,82.50
2018-09-15T23:35:18.952Z,82.10
2018-09-15T23:37:24.212Z,81.80
2018-09-15T23:39:28.481Z,81.00
2018-09-15T23:41:32.853Z,81.10
2018-09-15T23:43:38.224Z,81.60
2018-09-15T23:45:43.560Z,81.60
2018-09-15T23:47:50.015Z,81.40
2018-09-15T23:49:56.254Z,81.20
2018-09-15T23:52:01.237Z,81.00
2018-09-15T23:54:06.850Z,80.90
2018-09-15T23:56:11.497Z,80.80
2018-09-15T23:58:15.497Z,80.80
